sensor_id;sensor_type;location;lat;lon;timestamp;P1;durP1;ratioP1;P2;durP2;ratioP2
6053;SDS011;3055;50.886;14.814;2022-12-18T00:02:13;25.00;;;13.43;;
6053;SDS011;3055;50.886;14.814;2022-12-18T00:04:40;19.20;;;11.97;;
6053;SDS011;3055;50.886;14.814;2022-12-18T00:07:09;20.73;;;12.40;;
6053;SDS011;3055;50.886;14.814;2022-12-18T00:09:36;20.27;;;12.80;;
6053;SDS011;3055;50.886;14.814;2022-12-18T00:12:03;19.37;;;12.17;;
6053;SDS011;3055;50.886;14.814;2022-12-18T00:14:30;21.07;;;11.97;;
6053;SDS011;3055;50.886;14.814;2022-12-18T00:16:57;20.00;;;11.73;;
6053;SDS011;3055;50.886;14.814;2022-12-18T00:19:25;17.60;;;11.27;;
6053;SDS011;3055;50.886;14.814;2022-12-18T00:21:53;20.13;;;11.80;;
6053;SDS011;3055;50.886;14.814;2022-12-18T00:24:21;22.67;;;11.90;;
6053;SDS011;3055;50.886;14.814;2022-12-18T00:26:48;23.83;;;12.53;;
6053;SDS011;3055;50.886;14.814;2022-12-18T00:29:16;21.07;;;11.37;;
6053;SDS011;3055;50.886;14.814;2022-12-18T00:31:43;23.57;;;13.50;;
6053;SDS011;3055;50.886;14.814;2022-12-18T00:34:10;19.70;;;12.77;;
6053;SDS011;3055;50.886;14.814;2022-12-18T00:36:38;23.23;;;13.03;;
6053;SDS011;3055;50.886;14.814;2022-12-18T00:39:06;21.57;;;13.20;;
6053;SDS011;3055;50.886;14.814;2022-12-18T00:41:35;20.23;;;12.00;;
6053;SDS011;3055;50.886;14.814;2022-12-18T00:44:19;18.57;;;12.57;;
6053;SDS011;3055;50.886;14.814;2022-12-18T00:46:46;21.10;;;12.67;;
6053;SDS011;3055;50.886;14.814;2022-12-18T00:49:14;21.50;;;13.70;;
6053;SDS011;3055;50.886;14.814;2022-12-18T00:51:42;21.23;;;12.50;;
6053;SDS011;3055;50.886;14.814;2022-12-18T00:54:09;18.43;;;11.70;;
6053;SDS011;3055;50.886;14.814;2022-12-18T00:56:38;22.67;;;13.30;;
6053;SDS011;3055;50.886;14.814;2022-12-18T00:59:06;22.10;;;12.63;;
6053;SDS011;3055;50.886;14.814;2022-12-18T01:01:33;25.40;;;14.60;;
6053;SDS011;3055;50.886;14.814;2022-12-18T01:04:01;25.47;;;14.77;;
6053;SDS011;3055;50.886;14.814;2022-12-18T01:06:28;20.33;;;12.93;;
6053;SDS011;3055;50.886;14.814;2022-12-18T01:08:56;25.20;;;13.93;;
6053;SDS011;3055;50.886;14.814;2022-12-18T01:11:23;22.30;;;13.70;;
6053;SDS011;3055;50.886;14.814;2022-12-18T01:13:52;17.80;;;11.93;;
6053;SDS011;3055;50.886;14.814;2022-12-18T01:16:20;26.30;;;14.57;;
6053;SDS011;3055;50.886;14.814;2022-12-18T01:18:50;28.37;;;16.03;;
6053;SDS011;3055;50.886;14.814;2022-12-18T01:21:18;20.57;;;13.50;;
6053;SDS011;3055;50.886;14.814;2022-12-18T01:23:45;22.23;;;13.37;;
6053;SDS011;3055;50.886;14.814;2022-12-18T01:26:13;20.37;;;11.97;;
6053;SDS011;3055;50.886;14.814;2022-12-18T01:28:41;19.23;;;12.40;;
6053;SDS011;3055;50.886;14.814;2022-12-18T01:31:15;26.07;;;13.40;;
6053;SDS011;3055;50.886;14.814;2022-12-18T01:33:44;19.60;;;13.00;;
6053;SDS011;3055;50.886;14.814;2022-12-18T01:36:15;20.50;;;13.20;;
6053;SDS011;3055;50.886;14.814;2022-12-18T01:38:43;22.67;;;14.17;;
6053;SDS011;3055;50.886;14.814;2022-12-18T01:41:10;25.67;;;13.97;;
6053;SDS011;3055;50.886;14.814;2022-12-18T01:43:41;21.00;;;11.87;;
6053;SDS011;3055;50.886;14.814;2022-12-18T01:46:09;24.73;;;14.13;;
6053;SDS011;3055;50.886;14.814;2022-12-18T01:48:37;20.90;;;12.87;;
6053;SDS011;3055;50.886;14.814;2022-12-18T01:51:06;21.17;;;12.43;;
6053;SDS011;3055;50.886;14.814;2022-12-18T01:53:36;20.07;;;13.70;;
6053;SDS011;3055;50.886;14.814;2022-12-18T01:56:05;22.33;;;13.20;;
6053;SDS011;3055;50.886;14.814;2022-12-18T01:58:35;20.40;;;13.53;;
6053;SDS011;3055;50.886;14.814;2022-12-18T02:01:08;19.40;;;12.23;;
6053;SDS011;3055;50.886;14.814;2022-12-18T02:03:35;22.73;;;13.77;;
6053;SDS011;3055;50.886;14.814;2022-12-18T02:06:08;22.43;;;12.90;;
6053;SDS011;3055;50.886;14.814;2022-12-18T02:08:40;20.50;;;13.30;;
6053;SDS011;3055;50.886;14.814;2022-12-18T02:11:16;28.33;;;14.97;;
6053;SDS011;3055;50.886;14.814;2022-12-18T02:13:52;25.70;;;15.23;;
6053;SDS011;3055;50.886;14.814;2022-12-18T02:16:28;22.80;;;13.07;;
6053;SDS011;3055;50.886;14.814;2022-12-18T02:19:04;23.07;;;13.13;;
6053;SDS011;3055;50.886;14.814;2022-12-18T02:21:44;22.17;;;12.20;;
6053;SDS011;3055;50.886;14.814;2022-12-18T02:24:18;20.67;;;12.70;;
6053;SDS011;3055;50.886;14.814;2022-12-18T02:26:59;22.77;;;12.57;;
6053;SDS011;3055;50.886;14.814;2022-12-18T02:29:29;23.87;;;13.23;;
6053;SDS011;3055;50.886;14.814;2022-12-18T02:32:00;23.87;;;13.63;;
6053;SDS011;3055;50.886;14.814;2022-12-18T02:34:32;21.90;;;13.50;;
6053;SDS011;3055;50.886;14.814;2022-12-18T02:37:04;24.60;;;13.97;;
6053;SDS011;3055;50.886;14.814;2022-12-18T02:39:35;23.80;;;13.77;;
6053;SDS011;3055;50.886;14.814;2022-12-18T02:42:06;19.87;;;12.10;;
6053;SDS011;3055;50.886;14.814;2022-12-18T02:44:33;21.43;;;12.40;;
6053;SDS011;3055;50.886;14.814;2022-12-18T02:47:01;20.50;;;11.33;;
6053;SDS011;3055;50.886;14.814;2022-12-18T02:49:31;20.90;;;11.90;;
6053;SDS011;3055;50.886;14.814;2022-12-18T02:52:08;18.77;;;11.17;;
6053;SDS011;3055;50.886;14.814;2022-12-18T02:54:49;21.20;;;11.63;;
6053;SDS011;3055;50.886;14.814;2022-12-18T02:57:24;17.00;;;10.87;;
6053;SDS011;3055;50.886;14.814;2022-12-18T03:00:01;19.40;;;11.23;;
6053;SDS011;3055;50.886;14.814;2022-12-18T03:02:34;18.40;;;10.90;;
6053;SDS011;3055;50.886;14.814;2022-12-18T03:05:07;17.00;;;10.00;;
6053;SDS011;3055;50.886;14.814;2022-12-18T03:07:39;17.60;;;11.67;;
6053;SDS011;3055;50.886;14.814;2022-12-18T03:10:11;19.73;;;11.77;;
6053;SDS011;3055;50.886;14.814;2022-12-18T03:12:43;18.03;;;11.30;;
6053;SDS011;3055;50.886;14.814;2022-12-18T03:15:15;17.27;;;10.87;;
6053;SDS011;3055;50.886;14.814;2022-12-18T03:17:49;16.33;;;9.83;;
6053;SDS011;3055;50.886;14.814;2022-12-18T03:20:22;16.17;;;9.73;;
6053;SDS011;3055;50.886;14.814;2022-12-18T03:22:53;16.70;;;10.43;;
6053;SDS011;3055;50.886;14.814;2022-12-18T03:25:26;18.03;;;11.77;;
6053;SDS011;3055;50.886;14.814;2022-12-18T03:27:56;18.57;;;10.83;;
6053;SDS011;3055;50.886;14.814;2022-12-18T03:30:26;17.90;;;11.17;;
6053;SDS011;3055;50.886;14.814;2022-12-18T03:32:56;14.87;;;9.60;;
6053;SDS011;3055;50.886;14.814;2022-12-18T03:35:29;21.43;;;11.20;;
6053;SDS011;3055;50.886;14.814;2022-12-18T03:37:58;19.93;;;12.63;;
6053;SDS011;3055;50.886;14.814;2022-12-18T03:40:26;19.07;;;11.23;;
6053;SDS011;3055;50.886;14.814;2022-12-18T03:43:03;22.27;;;12.43;;
6053;SDS011;3055;50.886;14.814;2022-12-18T03:45:41;18.27;;;12.10;;
6053;SDS011;3055;50.886;14.814;2022-12-18T03:48:15;22.57;;;14.33;;
6053;SDS011;3055;50.886;14.814;2022-12-18T03:50:48;25.47;;;13.43;;
6053;SDS011;3055;50.886;14.814;2022-12-18T03:53:22;27.27;;;12.90;;
6053;SDS011;3055;50.886;14.814;2022-12-18T03:55:55;24.60;;;14.03;;
6053;SDS011;3055;50.886;14.814;2022-12-18T03:58:25;23.80;;;13.40;;
6053;SDS011;3055;50.886;14.814;2022-12-18T04:00:56;26.37;;;13.83;;
6053;SDS011;3055;50.886;14.814;2022-12-18T04:03:26;22.93;;;11.37;;
6053;SDS011;3055;50.886;14.814;2022-12-18T04:05:56;23.77;;;12.87;;
6053;SDS011;3055;50.886;14.814;2022-12-18T04:08:25;25.70;;;13.50;;
6053;SDS011;3055;50.886;14.814;2022-12-18T04:10:52;23.33;;;12.97;;
6053;SDS011;3055;50.886;14.814;2022-12-18T04:13:23;25.43;;;13.37;;
6053;SDS011;3055;50.886;14.814;2022-12-18T04:15:52;24.97;;;12.90;;
6053;SDS011;3055;50.886;14.814;2022-12-18T04:18:19;20.60;;;12.27;;
6053;SDS011;3055;50.886;14.814;2022-12-18T04:20:46;21.67;;;13.30;;
6053;SDS011;3055;50.886;14.814;2022-12-18T04:23:13;24.03;;;13.37;;
6053;SDS011;3055;50.886;14.814;2022-12-18T04:25:40;23.17;;;13.37;;
6053;SDS011;3055;50.886;14.814;2022-12-18T04:28:07;21.60;;;13.00;;
6053;SDS011;3055;50.886;14.814;2022-12-18T04:30:34;28.93;;;14.17;;
6053;SDS011;3055;50.886;14.814;2022-12-18T04:33:03;27.33;;;14.83;;
6053;SDS011;3055;50.886;14.814;2022-12-18T04:35:30;24.27;;;13.27;;
6053;SDS011;3055;50.886;14.814;2022-12-18T04:37:57;23.53;;;14.40;;
6053;SDS011;3055;50.886;14.814;2022-12-18T04:40:25;24.73;;;13.90;;
6053;SDS011;3055;50.886;14.814;2022-12-18T04:42:52;25.63;;;13.60;;
6053;SDS011;3055;50.886;14.814;2022-12-18T04:45:19;21.13;;;12.40;;
6053;SDS011;3055;50.886;14.814;2022-12-18T04:47:46;24.57;;;13.00;;
6053;SDS011;3055;50.886;14.814;2022-12-18T04:50:15;23.83;;;12.57;;
6053;SDS011;3055;50.886;14.814;2022-12-18T04:52:42;26.20;;;13.03;;
6053;SDS011;3055;50.886;14.814;2022-12-18T04:55:09;22.03;;;12.63;;
6053;SDS011;3055;50.886;14.814;2022-12-18T04:57:36;22.43;;;12.50;;
6053;SDS011;3055;50.886;14.814;2022-12-18T05:00:03;27.90;;;14.17;;
6053;SDS011;3055;50.886;14.814;2022-12-18T05:02:31;21.30;;;12.37;;
6053;SDS011;3055;50.886;14.814;2022-12-18T05:04:59;20.97;;;12.17;;
6053;SDS011;3055;50.886;14.814;2022-12-18T05:07:27;25.13;;;13.13;;
6053;SDS011;3055;50.886;14.814;2022-12-18T05:09:54;23.30;;;12.73;;
6053;SDS011;3055;50.886;14.814;2022-12-18T05:12:24;26.13;;;12.77;;
6053;SDS011;3055;50.886;14.814;2022-12-18T05:14:51;28.80;;;13.83;;
6053;SDS011;3055;50.886;14.814;2022-12-18T05:17:18;26.03;;;15.03;;
6053;SDS011;3055;50.886;14.814;2022-12-18T05:19:45;28.30;;;12.93;;
6053;SDS011;3055;50.886;14.814;2022-12-18T05:22:12;25.77;;;13.30;;
6053;SDS011;3055;50.886;14.814;2022-12-18T05:24:41;26.13;;;13.93;;
6053;SDS011;3055;50.886;14.814;2022-12-18T05:27:08;22.70;;;12.53;;
6053;SDS011;3055;50.886;14.814;2022-12-18T05:29:35;28.53;;;14.27;;
6053;SDS011;3055;50.886;14.814;2022-12-18T05:32:02;24.67;;;13.70;;
6053;SDS011;3055;50.886;14.814;2022-12-18T05:34:29;21.03;;;13.33;;
6053;SDS011;3055;50.886;14.814;2022-12-18T05:36:58;21.77;;;12.10;;
6053;SDS011;3055;50.886;14.814;2022-12-18T05:39:25;22.47;;;12.53;;
6053;SDS011;3055;50.886;14.814;2022-12-18T05:41:54;21.20;;;12.10;;
6053;SDS011;3055;50.886;14.814;2022-12-18T05:44:21;23.60;;;12.37;;
6053;SDS011;3055;50.886;14.814;2022-12-18T05:46:48;25.43;;;12.63;;
6053;SDS011;3055;50.886;14.814;2022-12-18T05:49:15;23.57;;;13.67;;
6053;SDS011;3055;50.886;14.814;2022-12-18T05:51:42;27.80;;;13.17;;
6053;SDS011;3055;50.886;14.814;2022-12-18T05:54:09;24.17;;;13.77;;
6053;SDS011;3055;50.886;14.814;2022-12-18T05:56:36;26.53;;;13.43;;
6053;SDS011;3055;50.886;14.814;2022-12-18T05:59:05;24.23;;;13.83;;
6053;SDS011;3055;50.886;14.814;2022-12-18T06:01:32;22.33;;;12.43;;
6053;SDS011;3055;50.886;14.814;2022-12-18T06:03:59;22.33;;;13.60;;
6053;SDS011;3055;50.886;14.814;2022-12-18T06:06:26;22.00;;;12.57;;
6053;SDS011;3055;50.886;14.814;2022-12-18T06:08:54;20.80;;;12.03;;
6053;SDS011;3055;50.886;14.814;2022-12-18T06:11:22;24.47;;;12.50;;
6053;SDS011;3055;50.886;14.814;2022-12-18T06:13:51;23.87;;;12.97;;
6053;SDS011;3055;50.886;14.814;2022-12-18T06:16:20;23.63;;;12.33;;
6053;SDS011;3055;50.886;14.814;2022-12-18T06:18:47;20.00;;;11.73;;
6053;SDS011;3055;50.886;14.814;2022-12-18T06:21:14;21.27;;;12.63;;
6053;SDS011;3055;50.886;14.814;2022-12-18T06:23:41;23.50;;;13.77;;
6053;SDS011;3055;50.886;14.814;2022-12-18T06:26:09;21.27;;;12.20;;
6053;SDS011;3055;50.886;14.814;2022-12-18T06:28:37;18.83;;;12.90;;
6053;SDS011;3055;50.886;14.814;2022-12-18T06:31:04;27.40;;;13.47;;
6053;SDS011;3055;50.886;14.814;2022-12-18T06:33:34;19.17;;;11.33;;
6053;SDS011;3055;50.886;14.814;2022-12-18T06:36:02;24.37;;;12.97;;
6053;SDS011;3055;50.886;14.814;2022-12-18T06:38:30;23.20;;;12.83;;
6053;SDS011;3055;50.886;14.814;2022-12-18T06:40:58;21.77;;;12.30;;
6053;SDS011;3055;50.886;14.814;2022-12-18T06:43:25;23.87;;;12.27;;
6053;SDS011;3055;50.886;14.814;2022-12-18T06:45:59;24.03;;;12.83;;
6053;SDS011;3055;50.886;14.814;2022-12-18T06:48:27;26.30;;;13.40;;
6053;SDS011;3055;50.886;14.814;2022-12-18T06:50:55;26.40;;;13.00;;
6053;SDS011;3055;50.886;14.814;2022-12-18T06:53:22;26.60;;;13.37;;
6053;SDS011;3055;50.886;14.814;2022-12-18T06:55:50;22.63;;;13.27;;
6053;SDS011;3055;50.886;14.814;2022-12-18T06:58:17;31.87;;;14.90;;
6053;SDS011;3055;50.886;14.814;2022-12-18T07:00:44;31.00;;;15.10;;
6053;SDS011;3055;50.886;14.814;2022-12-18T07:03:11;23.50;;;14.37;;
6053;SDS011;3055;50.886;14.814;2022-12-18T07:05:39;27.37;;;13.53;;
6053;SDS011;3055;50.886;14.814;2022-12-18T07:08:08;26.27;;;14.13;;
6053;SDS011;3055;50.886;14.814;2022-12-18T07:10:40;21.93;;;11.63;;
6053;SDS011;3055;50.886;14.814;2022-12-18T07:13:07;27.93;;;13.27;;
6053;SDS011;3055;50.886;14.814;2022-12-18T07:15:34;30.23;;;14.47;;
6053;SDS011;3055;50.886;14.814;2022-12-18T07:18:01;24.90;;;13.67;;
6053;SDS011;3055;50.886;14.814;2022-12-18T07:20:29;35.13;;;15.53;;
6053;SDS011;3055;50.886;14.814;2022-12-18T07:22:56;31.50;;;15.20;;
6053;SDS011;3055;50.886;14.814;2022-12-18T07:25:24;32.03;;;15.20;;
6053;SDS011;3055;50.886;14.814;2022-12-18T07:27:51;30.83;;;16.43;;
6053;SDS011;3055;50.886;14.814;2022-12-18T07:30:18;32.97;;;15.10;;
6053;SDS011;3055;50.886;14.814;2022-12-18T07:32:45;26.23;;;14.33;;
6053;SDS011;3055;50.886;14.814;2022-12-18T07:35:12;28.13;;;15.00;;
6053;SDS011;3055;50.886;14.814;2022-12-18T07:37:40;26.63;;;14.57;;
6053;SDS011;3055;50.886;14.814;2022-12-18T07:40:07;27.13;;;14.20;;
6053;SDS011;3055;50.886;14.814;2022-12-18T07:42:37;29.97;;;15.17;;
6053;SDS011;3055;50.886;14.814;2022-12-18T07:45:04;33.77;;;16.50;;
6053;SDS011;3055;50.886;14.814;2022-12-18T07:47:33;37.10;;;17.23;;
6053;SDS011;3055;50.886;14.814;2022-12-18T07:50:01;28.97;;;15.37;;
6053;SDS011;3055;50.886;14.814;2022-12-18T07:52:28;32.70;;;15.53;;
6053;SDS011;3055;50.886;14.814;2022-12-18T07:54:55;29.60;;;16.23;;
6053;SDS011;3055;50.886;14.814;2022-12-18T07:57:22;32.17;;;15.77;;
6053;SDS011;3055;50.886;14.814;2022-12-18T07:59:51;33.03;;;16.27;;
6053;SDS011;3055;50.886;14.814;2022-12-18T08:02:18;27.50;;;14.97;;
6053;SDS011;3055;50.886;14.814;2022-12-18T08:04:45;34.03;;;16.60;;
6053;SDS011;3055;50.886;14.814;2022-12-18T08:07:12;34.73;;;16.90;;
6053;SDS011;3055;50.886;14.814;2022-12-18T08:09:39;30.73;;;16.33;;
6053;SDS011;3055;50.886;14.814;2022-12-18T08:12:06;37.27;;;18.37;;
6053;SDS011;3055;50.886;14.814;2022-12-18T08:14:33;30.67;;;16.73;;
6053;SDS011;3055;50.886;14.814;2022-12-18T08:17:02;32.60;;;17.47;;
6053;SDS011;3055;50.886;14.814;2022-12-18T08:19:29;29.10;;;15.10;;
6053;SDS011;3055;50.886;14.814;2022-12-18T08:21:56;24.70;;;14.97;;
6053;SDS011;3055;50.886;14.814;2022-12-18T08:24:23;30.07;;;14.77;;
6053;SDS011;3055;50.886;14.814;2022-12-18T08:26:50;29.23;;;15.13;;
6053;SDS011;3055;50.886;14.814;2022-12-18T08:29:17;30.70;;;15.53;;
6053;SDS011;3055;50.886;14.814;2022-12-18T08:31:45;29.27;;;15.53;;
6053;SDS011;3055;50.886;14.814;2022-12-18T08:34:13;33.50;;;16.07;;
6053;SDS011;3055;50.886;14.814;2022-12-18T08:36:40;31.27;;;16.40;;
6053;SDS011;3055;50.886;14.814;2022-12-18T08:39:07;30.17;;;15.90;;
6053;SDS011;3055;50.886;14.814;2022-12-18T08:41:37;29.30;;;15.03;;
6053;SDS011;3055;50.886;14.814;2022-12-18T08:44:04;31.67;;;14.87;;
6053;SDS011;3055;50.886;14.814;2022-12-18T08:46:48;25.97;;;15.07;;
6053;SDS011;3055;50.886;14.814;2022-12-18T08:49:17;32.80;;;17.03;;
6053;SDS011;3055;50.886;14.814;2022-12-18T08:51:44;29.10;;;16.53;;
6053;SDS011;3055;50.886;14.814;2022-12-18T08:54:11;26.57;;;17.00;;
6053;SDS011;3055;50.886;14.814;2022-12-18T08:56:39;30.30;;;17.77;;
6053;SDS011;3055;50.886;14.814;2022-12-18T08:59:06;32.33;;;16.93;;
6053;SDS011;3055;50.886;14.814;2022-12-18T09:01:35;30.23;;;16.67;;
6053;SDS011;3055;50.886;14.814;2022-12-18T09:04:02;33.77;;;17.20;;
6053;SDS011;3055;50.886;14.814;2022-12-18T09:06:30;29.23;;;16.67;;
6053;SDS011;3055;50.886;14.814;2022-12-18T09:08:58;37.93;;;18.07;;
6053;SDS011;3055;50.886;14.814;2022-12-18T09:11:26;34.17;;;16.93;;
6053;SDS011;3055;50.886;14.814;2022-12-18T09:13:54;30.20;;;16.10;;
6053;SDS011;3055;50.886;14.814;2022-12-18T09:16:23;36.47;;;17.40;;
6053;SDS011;3055;50.886;14.814;2022-12-18T09:18:51;37.57;;;19.10;;
6053;SDS011;3055;50.886;14.814;2022-12-18T09:21:24;32.07;;;18.43;;
6053;SDS011;3055;50.886;14.814;2022-12-18T09:23:54;33.90;;;18.30;;
6053;SDS011;3055;50.886;14.814;2022-12-18T09:26:22;35.20;;;16.77;;
6053;SDS011;3055;50.886;14.814;2022-12-18T09:28:50;36.33;;;18.07;;
6053;SDS011;3055;50.886;14.814;2022-12-18T09:31:18;35.17;;;18.90;;
6053;SDS011;3055;50.886;14.814;2022-12-18T09:33:46;30.83;;;17.93;;
6053;SDS011;3055;50.886;14.814;2022-12-18T09:36:14;37.50;;;17.77;;
6053;SDS011;3055;50.886;14.814;2022-12-18T09:38:43;29.50;;;16.77;;
6053;SDS011;3055;50.886;14.814;2022-12-18T09:41:17;34.13;;;19.63;;
6053;SDS011;3055;50.886;14.814;2022-12-18T09:43:53;29.17;;;17.97;;
6053;SDS011;3055;50.886;14.814;2022-12-18T09:46:27;31.33;;;17.63;;
6053;SDS011;3055;50.886;14.814;2022-12-18T09:48:58;31.27;;;18.07;;
6053;SDS011;3055;50.886;14.814;2022-12-18T09:51:30;28.93;;;14.90;;
6053;SDS011;3055;50.886;14.814;2022-12-18T09:54:02;33.23;;;16.73;;
6053;SDS011;3055;50.886;14.814;2022-12-18T09:56:36;35.70;;;16.77;;
6053;SDS011;3055;50.886;14.814;2022-12-18T09:59:13;31.73;;;17.00;;
6053;SDS011;3055;50.886;14.814;2022-12-18T10:01:46;33.27;;;17.63;;
6053;SDS011;3055;50.886;14.814;2022-12-18T10:04:13;35.17;;;18.07;;
6053;SDS011;3055;50.886;14.814;2022-12-18T10:06:43;27.10;;;15.47;;
6053;SDS011;3055;50.886;14.814;2022-12-18T10:09:18;25.73;;;14.17;;
6053;SDS011;3055;50.886;14.814;2022-12-18T10:11:55;29.33;;;15.90;;
6053;SDS011;3055;50.886;14.814;2022-12-18T10:14:30;27.07;;;14.23;;
6053;SDS011;3055;50.886;14.814;2022-12-18T10:17:02;26.63;;;14.97;;
6053;SDS011;3055;50.886;14.814;2022-12-18T10:19:40;27.77;;;15.00;;
6053;SDS011;3055;50.886;14.814;2022-12-18T10:22:18;25.73;;;14.17;;
6053;SDS011;3055;50.886;14.814;2022-12-18T10:24:53;29.13;;;15.70;;
6053;SDS011;3055;50.886;14.814;2022-12-18T10:27:27;29.00;;;14.33;;
6053;SDS011;3055;50.886;14.814;2022-12-18T10:29:56;29.53;;;16.57;;
6053;SDS011;3055;50.886;14.814;2022-12-18T10:32:25;27.37;;;15.80;;
6053;SDS011;3055;50.886;14.814;2022-12-18T10:34:54;30.13;;;14.67;;
6053;SDS011;3055;50.886;14.814;2022-12-18T10:37:24;23.00;;;13.97;;
6053;SDS011;3055;50.886;14.814;2022-12-18T10:40:07;24.07;;;13.77;;
6053;SDS011;3055;50.886;14.814;2022-12-18T10:42:38;26.13;;;15.00;;
6053;SDS011;3055;50.886;14.814;2022-12-18T10:45:09;29.83;;;14.93;;
6053;SDS011;3055;50.886;14.814;2022-12-18T10:47:41;27.63;;;15.00;;
6053;SDS011;3055;50.886;14.814;2022-12-18T10:50:16;28.20;;;15.47;;
6053;SDS011;3055;50.886;14.814;2022-12-18T10:52:52;26.33;;;14.43;;
6053;SDS011;3055;50.886;14.814;2022-12-18T10:55:21;31.53;;;16.87;;
6053;SDS011;3055;50.886;14.814;2022-12-18T10:57:52;25.83;;;15.10;;
6053;SDS011;3055;50.886;14.814;2022-12-18T11:00:23;28.33;;;16.57;;
6053;SDS011;3055;50.886;14.814;2022-12-18T11:02:52;36.57;;;15.47;;
6053;SDS011;3055;50.886;14.814;2022-12-18T11:05:27;27.20;;;16.03;;
6053;SDS011;3055;50.886;14.814;2022-12-18T11:07:56;24.93;;;14.00;;
6053;SDS011;3055;50.886;14.814;2022-12-18T11:10:26;31.90;;;16.63;;
6053;SDS011;3055;50.886;14.814;2022-12-18T11:13:00;31.40;;;16.30;;
6053;SDS011;3055;50.886;14.814;2022-12-18T11:15:36;32.87;;;16.83;;
6053;SDS011;3055;50.886;14.814;2022-12-18T11:18:14;32.70;;;15.53;;
6053;SDS011;3055;50.886;14.814;2022-12-18T11:20:43;28.70;;;16.13;;
6053;SDS011;3055;50.886;14.814;2022-12-18T11:23:18;29.30;;;15.53;;
6053;SDS011;3055;50.886;14.814;2022-12-18T11:25:51;31.63;;;17.17;;
6053;SDS011;3055;50.886;14.814;2022-12-18T11:31:23;29.67;;;14.97;;
6053;SDS011;3055;50.886;14.814;2022-12-18T11:33:54;29.03;;;14.73;;
6053;SDS011;3055;50.886;14.814;2022-12-18T11:36:28;27.13;;;14.43;;
6053;SDS011;3055;50.886;14.814;2022-12-18T11:38:59;33.43;;;16.23;;
6053;SDS011;3055;50.886;14.814;2022-12-18T11:41:32;31.57;;;15.60;;
6053;SDS011;3055;50.886;14.814;2022-12-18T11:44:26;28.50;;;14.90;;
6053;SDS011;3055;50.886;14.814;2022-12-18T11:46:55;33.77;;;14.67;;
6053;SDS011;3055;50.886;14.814;2022-12-18T11:49:28;32.20;;;15.03;;
6053;SDS011;3055;50.886;14.814;2022-12-18T11:52:00;26.87;;;15.97;;
6053;SDS011;3055;50.886;14.814;2022-12-18T11:54:35;28.17;;;17.20;;
6053;SDS011;3055;50.886;14.814;2022-12-18T11:57:04;29.33;;;15.93;;
6053;SDS011;3055;50.886;14.814;2022-12-18T11:59:42;26.97;;;13.77;;
6053;SDS011;3055;50.886;14.814;2022-12-18T12:02:27;27.20;;;14.80;;
6053;SDS011;3055;50.886;14.814;2022-12-18T12:05:11;30.50;;;16.40;;
6053;SDS011;3055;50.886;14.814;2022-12-18T12:07:53;28.63;;;16.50;;
6053;SDS011;3055;50.886;14.814;2022-12-18T12:10:28;29.03;;;15.00;;
6053;SDS011;3055;50.886;14.814;2022-12-18T12:13:10;28.47;;;16.60;;
6053;SDS011;3055;50.886;14.814;2022-12-18T12:15:49;31.83;;;17.50;;
6053;SDS011;3055;50.886;14.814;2022-12-18T12:18:28;30.47;;;16.13;;
6053;SDS011;3055;50.886;14.814;2022-12-18T12:21:05;44.20;;;23.67;;
6053;SDS011;3055;50.886;14.814;2022-12-18T12:23:40;42.33;;;28.20;;
6053;SDS011;3055;50.886;14.814;2022-12-18T12:26:16;35.40;;;17.63;;
6053;SDS011;3055;50.886;14.814;2022-12-18T12:28:52;32.20;;;18.03;;
6053;SDS011;3055;50.886;14.814;2022-12-18T12:31:42;32.03;;;16.63;;
6053;SDS011;3055;50.886;14.814;2022-12-18T12:34:23;27.53;;;17.10;;
6053;SDS011;3055;50.886;14.814;2022-12-18T12:36:57;29.60;;;17.97;;
6053;SDS011;3055;50.886;14.814;2022-12-18T12:39:35;34.90;;;18.87;;
6053;SDS011;3055;50.886;14.814;2022-12-18T12:42:04;36.20;;;18.97;;
6053;SDS011;3055;50.886;14.814;2022-12-18T12:44:55;38.93;;;21.27;;
6053;SDS011;3055;50.886;14.814;2022-12-18T12:47:28;31.93;;;17.07;;
6053;SDS011;3055;50.886;14.814;2022-12-18T12:49:59;35.60;;;18.90;;
6053;SDS011;3055;50.886;14.814;2022-12-18T12:52:30;32.97;;;17.23;;
6053;SDS011;3055;50.886;14.814;2022-12-18T12:55:01;36.53;;;19.00;;
6053;SDS011;3055;50.886;14.814;2022-12-18T12:57:31;30.57;;;17.13;;
6053;SDS011;3055;50.886;14.814;2022-12-18T13:00:03;34.97;;;18.07;;
6053;SDS011;3055;50.886;14.814;2022-12-18T13:02:37;30.10;;;16.27;;
6053;SDS011;3055;50.886;14.814;2022-12-18T13:05:13;36.87;;;16.73;;
6053;SDS011;3055;50.886;14.814;2022-12-18T13:07:46;31.07;;;14.97;;
6053;SDS011;3055;50.886;14.814;2022-12-18T13:10:25;30.40;;;18.43;;
6053;SDS011;3055;50.886;14.814;2022-12-18T13:12:58;31.77;;;17.17;;
6053;SDS011;3055;50.886;14.814;2022-12-18T13:15:30;33.57;;;16.87;;
6053;SDS011;3055;50.886;14.814;2022-12-18T13:18:06;30.93;;;16.23;;
6053;SDS011;3055;50.886;14.814;2022-12-18T13:20:42;31.50;;;16.60;;
6053;SDS011;3055;50.886;14.814;2022-12-18T13:28:56;28.17;;;14.43;;
6053;SDS011;3055;50.886;14.814;2022-12-18T13:34:35;29.00;;;14.13;;
6053;SDS011;3055;50.886;14.814;2022-12-18T13:43:15;33.83;;;18.20;;
6053;SDS011;3055;50.886;14.814;2022-12-18T13:48:50;33.53;;;16.97;;
6053;SDS011;3055;50.886;14.814;2022-12-18T13:51:21;39.90;;;16.83;;
6053;SDS011;3055;50.886;14.814;2022-12-18T13:53:50;33.40;;;17.50;;
6053;SDS011;3055;50.886;14.814;2022-12-18T13:56:21;35.37;;;18.13;;
6053;SDS011;3055;50.886;14.814;2022-12-18T13:59:06;37.77;;;19.13;;
6053;SDS011;3055;50.886;14.814;2022-12-18T14:01:42;35.97;;;19.47;;
6053;SDS011;3055;50.886;14.814;2022-12-18T14:04:11;36.97;;;18.90;;
6053;SDS011;3055;50.886;14.814;2022-12-18T14:06:44;33.50;;;18.70;;
6053;SDS011;3055;50.886;14.814;2022-12-18T14:09:13;35.13;;;19.47;;
6053;SDS011;3055;50.886;14.814;2022-12-18T14:11:45;31.77;;;17.40;;
6053;SDS011;3055;50.886;14.814;2022-12-18T14:14:14;33.83;;;17.03;;
6053;SDS011;3055;50.886;14.814;2022-12-18T14:16:42;31.77;;;17.53;;
6053;SDS011;3055;50.886;14.814;2022-12-18T14:19:10;27.37;;;15.77;;
6053;SDS011;3055;50.886;14.814;2022-12-18T14:21:40;29.87;;;15.47;;
6053;SDS011;3055;50.886;14.814;2022-12-18T14:24:15;33.10;;;15.87;;
6053;SDS011;3055;50.886;14.814;2022-12-18T14:26:44;35.63;;;17.47;;
6053;SDS011;3055;50.886;14.814;2022-12-18T14:29:19;30.50;;;15.17;;
6053;SDS011;3055;50.886;14.814;2022-12-18T14:32:04;32.60;;;16.57;;
6053;SDS011;3055;50.886;14.814;2022-12-18T14:34:32;31.80;;;16.87;;
6053;SDS011;3055;50.886;14.814;2022-12-18T14:37:00;30.90;;;16.53;;
6053;SDS011;3055;50.886;14.814;2022-12-18T14:39:27;27.87;;;15.93;;
6053;SDS011;3055;50.886;14.814;2022-12-18T14:41:54;32.53;;;16.10;;
6053;SDS011;3055;50.886;14.814;2022-12-18T14:44:22;29.23;;;15.63;;
6053;SDS011;3055;50.886;14.814;2022-12-18T14:46:49;24.60;;;14.07;;
6053;SDS011;3055;50.886;14.814;2022-12-18T14:49:19;29.90;;;16.20;;
6053;SDS011;3055;50.886;14.814;2022-12-18T14:51:49;30.93;;;17.10;;
6053;SDS011;3055;50.886;14.814;2022-12-18T14:54:20;30.23;;;15.27;;
6053;SDS011;3055;50.886;14.814;2022-12-18T14:56:49;32.93;;;15.53;;
6053;SDS011;3055;50.886;14.814;2022-12-18T14:59:21;29.90;;;14.90;;
6053;SDS011;3055;50.886;14.814;2022-12-18T15:01:57;26.47;;;15.10;;
6053;SDS011;3055;50.886;14.814;2022-12-18T15:04:27;24.60;;;14.80;;
6053;SDS011;3055;50.886;14.814;2022-12-18T15:07:05;26.93;;;15.43;;
6053;SDS011;3055;50.886;14.814;2022-12-18T15:09:39;28.87;;;14.00;;
6053;SDS011;3055;50.886;14.814;2022-12-18T15:12:17;30.13;;;14.97;;
6053;SDS011;3055;50.886;14.814;2022-12-18T15:14:50;27.23;;;17.33;;
6053;SDS011;3055;50.886;14.814;2022-12-18T15:17:18;29.53;;;15.27;;